createdAt,value
2022-08-16T00:02:21.877Z,50.47
2022-08-16T00:06:26.888Z,50.75
2022-08-16T00:10:33.303Z,50.69
2022-08-16T00:14:36.397Z,51.23
2022-08-16T00:18:39.680Z,50.89
2022-08-16T00:22:45.422Z,51.26
2022-08-16T00:26:50.254Z,50.90
2022-08-16T00:30:53.581Z,51.64
2022-08-16T00:34:56.737Z,51.65
2022-08-16T00:39:05.504Z,51.60
2022-08-16T00:43:19.104Z,51.74
2022-08-16T00:47:24.749Z,52.10
2022-08-16T00:51:29.540Z,51.60
2022-08-16T00:55:37.717Z,51.78
2022-08-16T00:59:42.493Z,52.27
2022-08-16T01:04:05.337Z,52.34
2022-08-16T01:08:35.813Z,52.07
2022-08-16T01:12:36.147Z,52.30
2022-08-16T01:16:44.380Z,52.81
2022-08-16T01:20:54.593Z,52.92
2022-08-16T01:25:04.208Z,53.54
2022-08-16T01:29:12.154Z,53.25
2022-08-16T01:33:15.903Z,54.07
2022-08-16T01:37:23.089Z,53.92
2022-08-16T01:41:31.422Z,54.51
2022-08-16T01:45:40.565Z,54.94
2022-08-16T01:50:40.908Z,54.93
2022-08-16T01:54:09.615Z,55.42
2022-08-16T01:58:27.011Z,55.01
2022-08-16T02:02:30.607Z,55.27
2022-08-16T02:06:37.929Z,55.03
2022-08-16T02:10:41.770Z,55.28
2022-08-16T02:14:46.935Z,55.23
2022-08-16T02:18:50.380Z,55.62
2022-08-16T02:22:55.155Z,55.41
2022-08-16T02:26:58.732Z,55.43
2022-08-16T02:31:06.805Z,55.53
2022-08-16T02:35:28.488Z,56.04
2022-08-16T02:39:32.029Z,56.06
2022-08-16T02:43:37.930Z,55.89
2022-08-16T02:48:00.644Z,56.28
2022-08-16T02:52:09.169Z,56.37
2022-08-16T02:56:14.903Z,56.47
2022-08-16T03:00:34.677Z,56.52
2022-08-16T03:04:52.115Z,56.17
2022-08-16T03:08:57.916Z,56.04
2022-08-16T03:13:04.267Z,56.34
2022-08-16T03:17:17.655Z,56.33
2022-08-16T03:21:25.289Z,56.19
2022-08-16T03:25:44.750Z,56.08
2022-08-16T03:29:54.714Z,55.75
2022-08-16T03:33:59.604Z,55.92
2022-08-16T03:38:32.839Z,55.79
2022-08-16T03:42:31.529Z,55.59
2022-08-16T03:46:48.215Z,55.65
2022-08-16T03:51:05.071Z,55.37
2022-08-16T03:55:15.298Z,55.54
2022-08-16T03:59:18.789Z,55.00
2022-08-16T04:03:25.900Z,54.67
2022-08-16T04:07:33.799Z,54.32
2022-08-16T04:11:39.723Z,54.34
2022-08-16T04:15:43.390Z,54.31
2022-08-16T04:20:11.086Z,53.78
2022-08-16T04:24:31.897Z,53.54
2022-08-16T04:28:53.193Z,53.40
2022-08-16T04:33:00.898Z,53.58
2022-08-16T04:37:09.959Z,53.65
2022-08-16T04:41:18.222Z,53.36
2022-08-16T04:45:36.185Z,53.11
2022-08-16T04:49:46.962Z,53.15
2022-08-16T04:53:52.674Z,52.93
2022-08-16T04:57:58.571Z,52.40
2022-08-16T05:02:04.450Z,53.03
2022-08-16T05:06:41.989Z,52.79
2022-08-16T05:10:58.943Z,52.70
2022-08-16T05:15:06.420Z,52.68
2022-08-16T05:19:16.520Z,53.04
2022-08-16T05:23:40.008Z,52.52
2022-08-16T05:27:44.501Z,52.48
2022-08-16T05:31:53.295Z,52.07
2022-08-16T05:35:59.628Z,52.18
2022-08-16T05:40:13.205Z,52.35
2022-08-16T05:44:23.958Z,52.06
2022-08-16T05:48:29.607Z,52.31
2022-08-16T05:52:39.467Z,52.29
2022-08-16T05:56:49.041Z,52.00
2022-08-16T06:00:53.609Z,52.01
2022-08-16T06:04:59.882Z,51.16
2022-08-16T06:09:07.153Z,51.00
2022-08-16T06:13:12.365Z,50.51
2022-08-16T06:17:21.690Z,50.24
2022-08-16T06:21:27.187Z,50.53
2022-08-16T06:25:41.579Z,50.13
2022-08-16T06:29:50.298Z,50.21
2022-08-16T06:33:56.648Z,50.32
2022-08-16T06:38:02.426Z,49.84
2022-08-16T06:42:07.992Z,49.54
2022-08-16T06:46:31.859Z,49.05
2022-08-16T06:50:40.219Z,48.41
2022-08-16T06:54:46.434Z,47.87
2022-08-16T06:58:56.352Z,47.85
2022-08-16T07:03:27.730Z,47.53
2022-08-16T07:07:34.468Z,47.24
2022-08-16T07:11:47.521Z,47.46
2022-08-16T07:16:02.836Z,46.77
2022-08-16T07:20:30.158Z,46.20
2022-08-16T07:24:33.856Z,46.02
2022-08-16T07:28:49.558Z,45.79
2022-08-16T07:32:55.650Z,45.62
2022-08-16T07:36:59.652Z,45.01
2022-08-16T07:41:16.056Z,45.56
2022-08-16T07:45:23.634Z,44.77
2022-08-16T07:49:32.564Z,45.22
2022-08-16T07:53:43.650Z,45.30
2022-08-16T07:58:00.769Z,45.41
2022-08-16T08:02:12.087Z,44.87
2022-08-16T08:06:19.251Z,44.90
2022-08-16T08:10:29.492Z,44.43
2022-08-16T08:14:37.018Z,43.77
2022-08-16T08:18:41.683Z,44.00
2022-08-16T08:23:00.573Z,44.23
2022-08-16T08:27:11.076Z,43.57
2022-08-16T08:31:16.223Z,43.76
2022-08-16T08:35:24.343Z,43.73
2022-08-16T08:39:32.134Z,43.21
2022-08-16T08:43:41.499Z,43.19
2022-08-16T08:47:54.207Z,43.41
2022-08-16T08:52:07.978Z,42.52
2022-08-16T08:56:22.922Z,42.62
2022-08-16T09:00:30.607Z,42.08
2022-08-16T09:04:39.699Z,42.23
2022-08-16T09:08:47.359Z,42.34
2022-08-16T09:12:53.573Z,42.46
2022-08-16T09:17:02.877Z,41.91
2022-08-16T09:21:09.434Z,41.83
2022-08-16T09:25:14.609Z,41.21
2022-08-16T09:29:23.953Z,41.46
2022-08-16T09:33:44.791Z,41.13
2022-08-16T09:38:00.857Z,40.93
2022-08-16T09:42:05.055Z,40.48
2022-08-16T09:46:48.053Z,40.80
2022-08-16T09:50:39.744Z,40.52
2022-08-16T09:54:44.295Z,40.76
2022-08-16T09:59:03.466Z,40.72
2022-08-16T10:03:10.050Z,40.55
2022-08-16T10:07:15.882Z,40.46
2022-08-16T10:11:49.880Z,40.48
2022-08-16T10:15:59.950Z,40.22
2022-08-16T10:20:05.570Z,40.02
2022-08-16T10:24:10.164Z,39.91
2022-08-16T10:28:28.854Z,39.83
2022-08-16T10:32:33.721Z,39.58
2022-08-16T10:36:40.387Z,39.35
2022-08-16T10:40:45.510Z,39.40
2022-08-16T10:44:53.750Z,39.52
2022-08-16T10:48:58.004Z,38.52
2022-08-16T10:53:07.575Z,39.51
2022-08-16T10:57:12.100Z,38.95
2022-08-16T11:01:43.839Z,38.63
2022-08-16T11:05:59.462Z,38.90
2022-08-16T11:10:20.616Z,38.75
2022-08-16T11:14:24.571Z,38.21
2022-08-16T11:18:36.755Z,38.43
2022-08-16T11:22:53.755Z,38.04
2022-08-16T11:31:21.946Z,38.65
2022-08-16T11:39:50.475Z,37.83
2022-08-16T11:44:05.511Z,37.75
2022-08-16T11:48:09.535Z,37.78
2022-08-16T11:52:12.972Z,37.91
2022-08-16T11:56:53.278Z,37.35
2022-08-16T12:00:51.971Z,36.65
2022-08-16T12:04:57.056Z,37.28
2022-08-16T12:09:02.048Z,37.02
2022-08-16T12:13:06.075Z,36.76
2022-08-16T12:17:15.347Z,36.63
2022-08-16T12:21:19.710Z,36.09
2022-08-16T12:25:25.947Z,36.46
2022-08-16T12:29:29.830Z,36.79
2022-08-16T12:33:44.637Z,35.89
2022-08-16T12:37:49.565Z,36.21
2022-08-16T12:42:00.181Z,35.83
2022-08-16T12:46:04.869Z,35.75
2022-08-16T12:50:14.913Z,35.42
2022-08-16T12:54:18.500Z,35.60
2022-08-16T12:58:49.228Z,35.18
2022-08-16T13:02:46.345Z,35.35
2022-08-16T13:06:52.408Z,34.65
2022-08-16T13:10:56.358Z,34.88
2022-08-16T13:14:59.458Z,34.70
2022-08-16T13:19:02.659Z,34.38
2022-08-16T13:23:12.635Z,35.21
2022-08-16T13:27:20.732Z,34.91
2022-08-16T13:31:38.374Z,35.04
2022-08-16T13:35:45.201Z,35.16
2022-08-16T13:39:51.950Z,35.04
2022-08-16T13:43:57.925Z,34.35
2022-08-16T13:48:02.735Z,34.27
2022-08-16T13:52:07.701Z,33.63
2022-08-16T13:56:24.763Z,34.56
2022-08-16T14:00:28.459Z,34.37
2022-08-16T14:04:35.239Z,34.06
2022-08-16T14:08:42.246Z,34.69
2022-08-16T14:12:47.122Z,34.28
2022-08-16T14:16:51.475Z,34.61
2022-08-16T14:20:56.483Z,33.73
2022-08-16T14:25:01.196Z,33.34
2022-08-16T14:29:08.172Z,34.43
2022-08-16T14:33:12.470Z,34.41
2022-08-16T14:37:15.930Z,33.92
2022-08-16T14:41:20.014Z,34.34
2022-08-16T14:45:27.265Z,33.08
2022-08-16T14:49:31.814Z,33.60
2022-08-16T14:53:36.131Z,34.08
2022-08-16T14:57:41.264Z,34.62
2022-08-16T15:01:59.705Z,33.66
2022-08-16T15:06:03.695Z,33.95
2022-08-16T15:10:08.526Z,34.11
2022-08-16T15:14:25.017Z,34.29
2022-08-16T15:18:31.712Z,34.22
2022-08-16T15:22:37.664Z,34.74
2022-08-16T15:26:45.166Z,34.44
2022-08-16T15:30:59.611Z,34.53
2022-08-16T15:35:08.773Z,33.74
2022-08-16T15:39:29.792Z,34.18
2022-08-16T15:43:40.020Z,34.15
2022-08-16T15:47:55.621Z,34.39
2022-08-16T15:52:01.487Z,34.53
2022-08-16T15:56:06.728Z,34.26
2022-08-16T16:00:14.768Z,34.45
2022-08-16T16:04:22.612Z,34.81
2022-08-16T16:08:28.964Z,34.80
2022-08-16T16:12:53.427Z,34.89
2022-08-16T16:16:56.305Z,35.20
2022-08-16T16:21:02.312Z,34.95
2022-08-16T16:25:07.721Z,35.13
2022-08-16T16:29:15.157Z,35.49
2022-08-16T16:33:25.709Z,35.60
2022-08-16T16:37:31.190Z,35.14
2022-08-16T16:41:36.773Z,34.64
2022-08-16T16:45:40.659Z,35.10
2022-08-16T16:49:43.772Z,34.90
2022-08-16T16:53:55.891Z,34.89
2022-08-16T16:58:35.536Z,34.61
2022-08-16T17:02:49.313Z,34.69
2022-08-16T17:06:57.259Z,34.94
2022-08-16T17:11:00.820Z,35.34
2022-08-16T17:15:07.571Z,35.56
2022-08-16T17:19:16.579Z,35.86
2022-08-16T17:23:58.780Z,35.68
2022-08-16T17:27:51.087Z,35.85
2022-08-16T17:31:55.968Z,35.65
2022-08-16T17:36:36.426Z,35.96
2022-08-16T17:40:55.020Z,36.26
2022-08-16T17:45:02.670Z,36.60
2022-08-16T17:49:07.662Z,36.63
2022-08-16T17:53:12.039Z,37.02
2022-08-16T17:57:15.321Z,37.30
2022-08-16T18:01:25.150Z,37.54
2022-08-16T18:05:30.698Z,37.74
2022-08-16T18:09:33.784Z,37.95
2022-08-16T18:13:39.918Z,38.24
2022-08-16T18:17:43.919Z,38.06
2022-08-16T18:22:06.089Z,38.30
2022-08-16T18:26:09.607Z,38.51
2022-08-16T18:30:17.533Z,38.67
2022-08-16T18:34:21.720Z,38.89
2022-08-16T18:38:26.651Z,39.00
2022-08-16T18:42:29.963Z,39.00
2022-08-16T18:46:33.330Z,39.16
2022-08-16T18:50:58.906Z,39.19
2022-08-16T18:55:14.450Z,39.20
2022-08-16T18:59:18.129Z,39.36
2022-08-16T19:03:25.731Z,39.60
2022-08-16T19:07:30.631Z,39.66
2022-08-16T19:11:35.979Z,39.37
2022-08-16T19:15:41.136Z,40.06
2022-08-16T19:19:44.431Z,39.80
2022-08-16T19:23:47.505Z,40.07
2022-08-16T19:27:53.083Z,40.20
2022-08-16T19:31:56.139Z,40.23
2022-08-16T19:35:59.780Z,40.22
2022-08-16T19:40:03.266Z,40.73
2022-08-16T19:44:08.505Z,40.58
2022-08-16T19:48:11.818Z,40.76
2022-08-16T19:52:18.676Z,40.38
2022-08-16T19:56:25.739Z,40.92
2022-08-16T20:00:35.399Z,40.48
2022-08-16T20:04:39.184Z,40.85
2022-08-16T20:08:42.338Z,41.06
2022-08-16T20:13:02.589Z,41.09
2022-08-16T20:17:08.164Z,41.60
2022-08-16T20:21:11.438Z,41.88
2022-08-16T20:25:18.689Z,41.98
2022-08-16T20:29:22.475Z,42.64
2022-08-16T20:33:27.658Z,43.74
2022-08-16T20:37:32.595Z,43.93
2022-08-16T20:41:36.150Z,44.62
2022-08-16T20:45:41.047Z,44.41
2022-08-16T20:49:45.725Z,44.61
2022-08-16T20:53:48.968Z,44.35
2022-08-16T20:57:52.242Z,44.54
2022-08-16T21:01:55.512Z,45.06
2022-08-16T21:06:01.976Z,45.18
2022-08-16T21:10:07.553Z,45.98
2022-08-16T21:14:11.706Z,45.74
2022-08-16T21:18:15.004Z,45.47
2022-08-16T21:22:21.984Z,45.54
2022-08-16T21:26:25.108Z,45.24
2022-08-16T21:30:32.347Z,45.15
2022-08-16T21:34:35.808Z,45.50
2022-08-16T21:38:41.105Z,45.96
2022-08-16T21:42:45.493Z,46.06
2022-08-16T21:46:49.548Z,45.54
2022-08-16T21:50:52.851Z,45.44
2022-08-16T21:54:58.337Z,45.47
2022-08-16T21:59:01.503Z,44.91
2022-08-16T22:03:06.987Z,45.42
2022-08-16T22:07:10.035Z,45.76
2022-08-16T22:11:14.706Z,45.74
2022-08-16T22:15:25.638Z,45.72
2022-08-16T22:19:29.301Z,45.68
2022-08-16T22:23:34.457Z,46.28
2022-08-16T22:27:38.964Z,45.81
2022-08-16T22:31:43.276Z,45.89
2022-08-16T22:35:48.544Z,46.25
2022-08-16T22:39:52.145Z,47.07
2022-08-16T22:43:56.788Z,47.74
2022-08-16T22:48:00.430Z,48.35
2022-08-16T22:52:07.287Z,48.62
2022-08-16T22:56:10.456Z,48.48
2022-08-16T23:00:18.572Z,48.23
2022-08-16T23:04:21.869Z,48.73
2022-08-16T23:08:32.248Z,48.89
2022-08-16T23:12:48.863Z,48.30
2022-08-16T23:16:53.425Z,48.96
2022-08-16T23:20:58.395Z,48.44
2022-08-16T23:25:01.866Z,48.68
2022-08-16T23:29:05.673Z,48.99
2022-08-16T23:33:22.424Z,49.47
2022-08-16T23:37:25.505Z,49.78
2022-08-16T23:41:30.721Z,49.54
2022-08-16T23:45:36.985Z,50.18
2022-08-16T23:49:59.359Z,50.08
2022-08-16T23:54:08.315Z,49.96
2022-08-16T23:58:13.067Z,50.43
